Colp, Illinois
Current Conditions -  °F | °C
As of 2:59 PM on Sunday 23 Nov 2014 (Local Time) from KMWA Reporting Station
Light Rain Light Rain  
Wind Chill: 55°   Ceiling: 700
Heat Index: 55°   Visibility: 5mi
Dew Point: 54°   Wind: 9mph
Humidity: 94%   Direction: 130°SE
Pressure: 29.38"   Gusts: NA
Location:  37.81°N, 89.08°W
Report Text: KMWA 232059Z 13008KT 5SM -RA BKN007 OVC016 13/12 A2938
Loading
Personal Weather Stations






























Interactive Weather Map New forecast layout! Learn more

10-Day Weather Forecast

Advertisements
Track Severe Weather on mobile